Terminal Aerodrome Forecast
Issued by NWS Quad Cities IA IL

Home | Current Version | Previous Version | Text Only | Print | Product List | Glossary On
Versions: 1 2 3 4 5 6 7 8 9 10 11 12 13 14 15 16 17 18 19 20 21 22 23 24 25 26 27 28 29 30 31 32 33 34 35 36
646
FTUS43 KDVN 210914 AAA
TAFMLI
TAF AMD
KMLI 210914Z 2109/2206 VRB03KT P6SM OVC035
     FM211200 11004KT 3SM BR OVC010
     FM211400 12005KT 1/2SM -DZ FG OVC004
     FM212100 10006KT 2SM -DZ BR OVC008
     FM220100 11007KT 4SM -RA BR OVC020=

USA.gov is the U.S. government's official web portal to all federal, state and local government web resources and services.